Time;durP1;ratioP1;P1;durP2;ratioP2;P2;SDS_P1;SDS_P2;PMS_P1;PMS_P2;Temp;Humidity;BMP_temperature;BMP_pressure;BME280_temperature;BME280_humidity;BME280_pressure;Samples;Min_cycle;Max_cycle;Signal;HPM_P1;HPM_P2
2020/12/07 00:02:19;;;;;;;43.08;23.67;;;;;;;5.15;84.89;97011.69;4997147;28;20222;-86
2020/12/07 00:04:48;;;;;;;43.00;25.45;;;;;;;5.10;85.28;96999.66;4989826;28;20199;-86
2020/12/07 00:07:18;;;;;;;41.03;27.00;;;;;;;5.08;85.59;96997.09;4997069;28;20234;-85
2020/12/07 00:09:44;;;;;;;53.00;27.80;;;;;;;5.08;85.67;97002.44;4992764;28;20218;-85
2020/12/07 00:12:13;;;;;;;51.90;27.92;;;;;;;5.09;85.68;96995.31;4957368;28;20614;-85
2020/12/07 00:14:55;;;;;;;46.85;27.00;;;;;;;4.97;85.31;97002.44;4978998;28;20229;-85
2020/12/07 00:17:22;;;;;;;47.28;26.58;;;;;;;4.94;86.06;97009.81;4979816;28;20651;-85
2020/12/07 00:19:49;;;;;;;49.45;27.67;;;;;;;4.97;86.16;97002.44;4980565;28;20297;-86
2020/12/07 00:22:34;;;;;;;49.35;26.80;;;;;;;5.00;85.97;97006.69;4979869;28;20254;-86
2020/12/07 00:25:04;;;;;;;46.58;25.02;;;;;;;4.96;85.79;97014.06;4979794;28;20266;-85
2020/12/07 00:27:33;;;;;;;49.30;26.63;;;;;;;5.07;85.69;97027.38;4978121;28;20219;-86
2020/12/07 00:30:01;;;;;;;43.83;25.73;;;;;;;4.98;85.31;97027.22;4996702;28;20232;-86
2020/12/07 00:32:28;;;;;;;40.53;24.67;;;;;;;5.02;85.76;97024.25;4973118;28;20598;-86
2020/12/07 00:34:56;;;;;;;42.80;23.25;;;;;;;5.00;84.55;97020.81;4994141;28;20211;-86
2020/12/07 00:37:23;;;;;;;45.85;25.40;;;;;;;4.92;84.96;97017.03;5000691;28;20313;-86
2020/12/07 00:39:49;;;;;;;44.72;24.85;;;;;;;5.01;85.22;97005.72;4976656;28;20219;-85
2020/12/07 00:42:16;;;;;;;38.65;22.83;;;;;;;4.90;84.91;97000.34;4988417;28;20226;-86
2020/12/07 00:44:42;;;;;;;40.25;22.65;;;;;;;4.90;85.17;96985.22;4975146;28;20218;-85
2020/12/07 00:47:10;;;;;;;36.03;21.25;;;;;;;5.00;84.81;96991.53;4973252;28;20286;-86
2020/12/07 00:49:41;;;;;;;41.88;23.20;;;;;;;5.10;85.26;96987.19;4979188;28;20254;-85
2020/12/07 00:52:07;;;;;;;39.08;23.05;;;;;;;5.05;84.62;96994.69;4978316;28;20226;-85
2020/12/07 00:54:34;;;;;;;34.05;21.15;;;;;;;5.02;84.84;96994.09;4966413;28;20290;-83
2020/12/07 00:57:03;;;;;;;36.80;20.85;;;;;;;5.09;84.63;97006.81;4982059;28;20226;-84
2020/12/07 00:59:36;;;;;;;33.42;20.15;;;;;;;5.08;84.42;97007.75;4990919;28;20744;-82
2020/12/07 01:02:03;;;;;;;34.47;19.90;;;;;;;5.21;83.75;97013.84;4989666;28;20219;-82
2020/12/07 01:04:30;;;;;;;32.78;19.38;;;;;;;5.22;83.88;97020.03;4995984;28;20178;-82
2020/12/07 01:07:01;;;;;;;36.25;19.90;;;;;;;5.20;83.25;97012.13;4978249;28;20219;-84
2020/12/07 01:09:30;;;;;;;33.13;18.98;;;;;;;5.13;83.98;97008.25;4972591;28;20279;-84
2020/12/07 01:12:00;;;;;;;32.33;19.17;;;;;;;5.12;83.63;97016.38;4976187;28;20217;-82
2020/12/07 01:14:36;;;;;;;29.17;19.42;;;;;;;5.10;83.77;97011.19;5003995;28;20202;-84
2020/12/07 01:17:05;;;;;;;34.00;19.23;;;;;;;5.07;83.98;97008.72;5019843;28;20182;-84
2020/12/07 01:19:32;;;;;;;34.13;19.35;;;;;;;5.11;84.24;97007.53;4997181;28;20202;-85
2020/12/07 01:22:00;;;;;;;31.25;19.08;;;;;;;5.10;84.14;97003.19;4998631;28;20250;-83
2020/12/07 01:24:28;;;;;;;32.72;19.48;;;;;;;5.13;83.61;97002.94;4979853;28;20227;-83
2020/12/07 01:26:57;;;;;;;38.15;21.35;;;;;;;5.07;83.79;96998.06;4988242;28;20241;-82
2020/12/07 01:29:25;;;;;;;34.92;20.33;;;;;;;5.02;84.19;97005.59;4997574;28;20210;-82
2020/12/07 01:31:51;;;;;;;34.17;20.52;;;;;;;5.09;84.28;97001.50;4999085;28;20207;-82
2020/12/07 01:34:18;;;;;;;37.17;21.75;;;;;;;5.00;84.15;96999.53;4991578;28;20215;-83
2020/12/07 01:36:44;;;;;;;37.28;20.92;;;;;;;5.04;84.25;96998.34;4979026;28;20231;-84
2020/12/07 01:39:14;;;;;;;34.90;21.05;;;;;;;4.99;84.28;96992.50;5001462;28;20225;-84
2020/12/07 01:41:42;;;;;;;37.00;20.13;;;;;;;4.89;83.93;96985.34;4962608;28;20238;-84
2020/12/07 01:44:13;;;;;;;34.13;20.63;;;;;;;4.88;84.39;96983.66;4971777;28;20192;-84
2020/12/07 01:47:34;;;;;;;33.83;20.65;;;;;;;4.84;84.71;96976.84;4984888;28;20195;-83
2020/12/07 01:50:46;;;;;;;34.85;20.27;;;;;;;4.84;85.45;96980.38;4988755;28;20211;-83
2020/12/07 01:53:14;;;;;;;35.20;21.13;;;;;;;5.04;84.81;96979.69;4959125;28;20714;-87
2020/12/07 01:55:46;;;;;;;30.75;19.50;;;;;;;5.01;84.28;96990.56;4994394;28;20202;-85
2020/12/07 01:58:15;;;;;;;33.40;19.98;;;;;;;4.98;84.11;96997.94;4992645;28;20226;-81
2020/12/07 02:00:42;;;;;;;36.67;21.13;;;;;;;4.89;84.34;97002.16;4973565;28;20233;-84
2020/12/07 02:03:22;;;;;;;28.75;18.60;;;;;;;4.86;84.84;96997.06;4991736;28;20215;-86
2020/12/07 02:10:02;;;;;;;32.17;18.25;;;;;;;5.03;83.87;96996.63;4997721;28;20246;-81
2020/12/07 02:13:24;;;;;;;34.17;19.80;;;;;;;5.08;83.79;97007.75;4954602;28;20315;-84
2020/12/07 02:24:06;;;;;;;37.88;19.52;;;;;;;5.12;83.67;97011.06;4879218;29;20321;-87
2020/12/07 02:26:37;;;;;;;31.88;17.92;;;;;;;5.10;83.47;97018.31;4902776;28;20302;-85
2020/12/07 02:29:04;;;;;;;35.25;19.38;;;;;;;5.14;83.30;97015.28;4908905;29;20237;-84
2020/12/07 02:31:40;;;;;;;37.08;20.48;;;;;;;5.13;83.26;97013.59;4911532;29;20293;-86
2020/12/07 02:34:08;;;;;;;32.35;19.77;;;;;;;5.06;83.14;97017.69;4910909;29;20244;-85
2020/12/07 02:36:43;;;;;;;34.50;19.85;;;;;;;5.06;83.71;97020.34;4909270;29;20229;-84
2020/12/07 02:43:49;;;;;;;32.40;19.83;;;;;;;5.00;83.90;96998.69;4907747;29;20229;-84
2020/12/07 02:46:16;;;;;;;38.00;20.10;;;;;;;5.04;84.02;96997.47;4934453;29;20219;-85
2020/12/07 02:52:44;;;;;;;37.70;19.15;;;;;;;5.02;83.68;97007.41;4902789;29;20665;-84
2020/12/07 02:55:19;;;;;;;35.80;19.88;;;;;;;5.02;83.57;97010.94;4888476;29;20222;-84
2020/12/07 02:57:51;;;;;;;36.83;20.75;;;;;;;5.04;83.96;97016.09;4982834;28;20261;-84
2020/12/07 03:05:16;;;;;;;37.20;20.55;;;;;;;5.13;82.83;97029.56;4911902;28;20221;-86
2020/12/07 03:08:14;;;;;;;42.53;23.50;;;;;;;5.09;83.38;97028.13;4941188;29;20205;-83
2020/12/07 03:10:42;;;;;;;42.42;22.60;;;;;;;5.21;83.29;97031.66;4929854;28;20245;-86
2020/12/07 03:13:08;;;;;;;41.25;21.65;;;;;;;5.15;83.00;97030.31;4998201;28;20226;-84
2020/12/07 03:15:40;;;;;;;45.22;22.75;;;;;;;5.06;83.24;97032.84;5000120;28;20215;-83
2020/12/07 03:18:09;;;;;;;42.08;22.63;;;;;;;5.17;83.04;97035.50;4978891;28;20247;-84
2020/12/07 03:20:58;;;;;;;39.97;21.77;;;;;;;5.10;82.88;97039.59;4986162;28;20278;-84
2020/12/07 03:23:29;;;;;;;39.28;22.17;;;;;;;5.01;83.08;97045.66;4953004;28;20234;-84
2020/12/07 03:26:07;;;;;;;40.67;23.65;;;;;;;4.95;83.32;97040.78;4963719;28;20253;-84
2020/12/07 03:28:57;;;;;;;;;;;;;;;;;;;;;
2020/12/07 03:31:50;;;;;;;43.08;24.88;;;;;;;4.90;83.27;97033.16;4925476;28;20241;-83
2020/12/07 03:34:23;;;;;;;42.20;24.08;;;;;;;4.83;83.02;97028.41;5001969;28;20281;-83
2020/12/07 03:37:00;;;;;;;42.83;22.92;;;;;;;4.70;83.52;97031.16;4983055;28;20923;-85
2020/12/07 03:39:55;;;;;;;39.85;22.17;;;;;;;4.73;83.58;97035.38;4996697;28;20233;-84
2020/12/07 03:42:24;;;;;;;41.75;22.15;;;;;;;4.70;83.45;97025.84;4992043;28;20280;-85
2020/12/07 03:45:04;;;;;;;50.80;24.63;;;;;;;4.68;84.01;97019.75;5003851;28;20218;-84
2020/12/07 03:47:31;;;;;;;42.25;22.35;;;;;;;4.78;83.55;97022.59;4968880;28;20235;-84
2020/12/07 03:50:04;;;;;;;37.58;23.13;;;;;;;4.75;83.12;97018.34;4979757;28;20466;-85
2020/12/07 03:52:40;;;;;;;37.13;21.80;;;;;;;4.81;82.88;97025.84;4990084;28;20222;-84
2020/12/07 03:55:13;;;;;;;37.38;21.85;;;;;;;4.87;83.06;97030.72;5015864;28;20285;-82
2020/12/07 03:57:42;;;;;;;31.90;19.98;;;;;;;4.77;81.97;97027.06;4973422;28;20210;-85
2020/12/07 04:00:09;;;;;;;34.35;20.25;;;;;;;4.83;82.37;97023.94;4996218;28;20225;-84
2020/12/07 04:03:03;;;;;;;33.10;20.08;;;;;;;4.78;82.21;97014.59;4975759;28;20223;-85
2020/12/07 04:05:38;;;;;;;28.50;18.85;;;;;;;4.67;82.23;97017.22;4995131;28;20253;-85
2020/12/07 04:08:10;;;;;;;30.73;18.33;;;;;;;4.63;82.36;97010.44;4992026;28;20202;-84
2020/12/07 04:10:41;;;;;;;31.38;18.58;;;;;;;4.68;82.40;97014.44;4973310;28;20217;-84
2020/12/07 04:13:11;;;;;;;34.10;20.08;;;;;;;4.62;82.72;97025.53;5003606;28;20215;-85
2020/12/07 04:15:43;;;;;;;31.83;18.35;;;;;;;4.65;82.62;97024.47;4993049;28;20771;-85
2020/12/07 04:18:26;;;;;;;30.90;18.42;;;;;;;4.52;82.65;97027.22;4989987;28;20305;-85
2020/12/07 04:21:01;;;;;;;30.05;18.38;;;;;;;4.58;82.44;97031.22;4976908;28;20226;-85
2020/12/07 04:23:30;;;;;;;28.92;18.50;;;;;;;4.62;82.80;97033.53;4963237;28;20250;-85
2020/12/07 04:26:00;;;;;;;30.08;19.55;;;;;;;4.72;82.44;97039.88;4996794;28;20314;-85
2020/12/07 04:28:31;;;;;;;31.88;18.10;;;;;;;4.76;81.99;97041.31;4939409;28;20291;-85
2020/12/07 04:31:00;;;;;;;28.75;17.15;;;;;;;4.63;82.44;97040.53;4996550;28;20261;-82
2020/12/07 04:33:29;;;;;;;26.25;18.05;;;;;;;4.78;82.40;97051.88;4985182;28;20226;-85
2020/12/07 04:35:55;;;;;;;28.50;17.42;;;;;;;4.84;81.76;97057.59;4981226;28;20238;-86
2020/12/07 04:38:24;;;;;;;27.98;17.65;;;;;;;4.76;81.30;97057.28;4967254;28;20253;-85
2020/12/07 04:40:55;;;;;;;25.23;16.17;;;;;;;4.77;81.53;97059.00;4968527;28;20249;-86
2020/12/07 04:43:36;;;;;;;27.77;17.80;;;;;;;4.68;81.65;97059.69;4991353;28;20237;-86
2020/12/07 04:46:14;;;;;;;30.67;19.73;;;;;;;4.73;82.22;97067.31;4985052;28;20643;-82
2020/12/07 04:49:02;;;;;;;31.08;19.13;;;;;;;4.75;82.34;97068.91;4974866;28;20229;-85
2020/12/07 04:51:32;;;;;;;28.80;17.48;;;;;;;4.76;82.29;97070.59;4974491;28;20286;-85
2020/12/07 04:54:01;;;;;;;38.15;19.90;;;;;;;4.80;82.51;97074.75;4965692;28;20238;-85
2020/12/07 04:56:27;;;;;;;30.90;20.60;;;;;;;4.72;81.99;97077.13;4958247;28;20239;-85
2020/12/07 04:59:06;;;;;;;34.05;18.98;;;;;;;4.87;81.88;97075.97;4982872;28;20206;-84
2020/12/07 05:01:37;;;;;;;30.75;19.20;;;;;;;4.82;81.12;97083.44;4994940;28;20250;-81
2020/12/07 05:04:06;;;;;;;33.17;20.17;;;;;;;4.84;81.68;97078.03;4983527;28;20312;-85
2020/12/07 05:06:35;;;;;;;31.83;18.27;;;;;;;4.79;81.70;97083.69;4981429;28;20599;-84
2020/12/07 05:09:04;;;;;;;28.20;17.45;;;;;;;4.75;81.58;97084.88;4976996;28;20227;-84
2020/12/07 05:11:31;;;;;;;31.52;19.70;;;;;;;4.64;82.03;97078.66;4983162;28;20230;-85
2020/12/07 05:14:08;;;;;;;31.67;19.40;;;;;;;4.58;82.10;97079.97;5011748;28;20233;-85
2020/12/07 05:16:38;;;;;;;33.78;19.50;;;;;;;4.67;82.63;97083.75;4983073;28;20226;-83
2020/12/07 05:19:08;;;;;;;33.33;18.80;;;;;;;4.64;82.76;97084.84;4997530;28;20214;-86
2020/12/07 05:21:35;;;;;;;36.78;20.88;;;;;;;4.73;82.38;97092.13;4983950;28;20235;-85
2020/12/07 05:24:05;;;;;;;32.25;18.90;;;;;;;4.70;82.36;97092.38;4955884;28;20364;-86
2020/12/07 05:26:35;;;;;;;31.33;19.00;;;;;;;4.63;81.80;97098.25;4960305;28;20254;-85
2020/12/07 05:29:07;;;;;;;29.92;18.92;;;;;;;4.68;82.31;97106.75;5010368;28;20179;-84
2020/12/07 05:31:34;;;;;;;27.98;17.75;;;;;;;4.58;82.35;97106.59;4994799;28;20221;-86
2020/12/07 05:34:05;;;;;;;29.73;18.90;;;;;;;4.76;81.97;97113.19;5010660;28;20223;-85
2020/12/07 05:36:32;;;;;;;32.47;17.42;;;;;;;4.70;82.31;97116.34;5020209;28;20207;-85
2020/12/07 05:38:59;;;;;;;28.73;17.08;;;;;;;4.68;82.18;97117.41;5007899;28;20246;-86
2020/12/07 05:41:29;;;;;;;26.65;17.08;;;;;;;4.68;81.48;97118.25;4980646;28;20215;-85
2020/12/07 05:44:01;;;;;;;30.50;18.90;;;;;;;4.64;82.50;97116.78;5000261;28;20194;-84
2020/12/07 05:46:34;;;;;;;31.42;18.50;;;;;;;4.66;82.21;97117.53;4961449;28;20223;-85
2020/12/07 05:49:15;;;;;;;29.40;18.23;;;;;;;4.73;82.37;97121.41;5000215;28;20242;-85
2020/12/07 05:51:50;;;;;;;33.60;18.88;;;;;;;4.66;82.12;97125.50;4996082;28;20347;-86
2020/12/07 05:54:19;;;;;;;30.17;19.15;;;;;;;4.68;81.93;97131.56;4991648;28;20220;-85
2020/12/07 05:56:52;;;;;;;33.40;19.83;;;;;;;4.56;81.83;97132.44;5001550;28;20230;-84
2020/12/07 05:59:27;;;;;;;31.05;18.40;;;;;;;4.59;81.86;97140.22;5002985;28;20179;-86
2020/12/07 06:01:54;;;;;;;32.10;20.52;;;;;;;4.53;82.02;97146.00;5003146;28;20653;-86
2020/12/07 06:04:25;;;;;;;33.42;21.55;;;;;;;4.49;82.73;97151.66;4972193;28;20222;-86
2020/12/07 06:07:02;;;;;;;37.65;20.27;;;;;;;4.62;81.67;97153.28;4970790;28;20230;-85
2020/12/07 06:09:58;;;;;;;28.85;18.15;;;;;;;4.66;81.69;97154.78;4984687;28;20234;-86
2020/12/07 06:12:30;;;;;;;35.15;21.77;;;;;;;4.61;82.08;97153.44;4982617;28;20214;-85
2020/12/07 06:15:04;;;;;;;39.42;19.50;;;;;;;4.57;81.98;97150.09;4978076;28;20226;-84
2020/12/07 06:17:34;;;;;;;32.65;19.88;;;;;;;4.59;82.36;97156.19;5012843;28;20440;-86
2020/12/07 06:20:02;;;;;;;35.70;20.45;;;;;;;4.51;82.07;97158.56;5004329;28;20214;-84
2020/12/07 06:22:34;;;;;;;34.75;19.83;;;;;;;4.54;82.71;97153.00;4961277;28;20242;-86
2020/12/07 06:25:01;;;;;;;33.88;20.45;;;;;;;4.49;82.48;97157.81;4987675;28;21527;-86
2020/12/07 06:27:30;;;;;;;37.80;21.90;;;;;;;4.49;82.72;97159.63;4977032;28;20821;-85
2020/12/07 06:32:52;;;;;;;32.25;18.30;;;;;;;4.42;82.57;97164.53;4986649;28;20230;-84
2020/12/07 06:35:19;;;;;;;34.40;20.48;;;;;;;4.40;82.59;97166.47;4975759;28;20265;-84
2020/12/07 06:37:48;;;;;;;29.13;18.80;;;;;;;4.38;82.69;97171.06;4987017;28;20277;-87
2020/12/07 06:40:21;;;;;;;33.30;19.90;;;;;;;4.18;82.81;97174.28;4957969;28;20315;-86
2020/12/07 06:42:53;;;;;;;35.92;20.55;;;;;;;4.25;84.28;97180.84;4983711;28;20202;-85
2020/12/07 06:45:32;;;;;;;36.22;20.23;;;;;;;4.34;83.42;97174.88;4973328;28;20226;-86
2020/12/07 06:48:06;;;;;;;34.72;20.27;;;;;;;4.41;82.81;97184.13;4993353;28;20249;-85
2020/12/07 06:50:37;;;;;;;35.28;18.85;;;;;;;4.37;83.15;97182.63;4986085;28;20225;-84
2020/12/07 06:55:59;;;;;;;36.55;19.55;;;;;;;4.37;82.73;97193.28;5015883;28;20209;-85
2020/12/07 06:58:40;;;;;;;31.58;19.45;;;;;;;4.40;83.09;97198.41;4996694;28;20227;-85
2020/12/07 07:01:18;;;;;;;35.42;20.88;;;;;;;4.41;83.32;97189.44;4973917;28;20207;-86
2020/12/07 07:03:53;;;;;;;32.60;19.30;;;;;;;4.40;83.26;97200.19;4989821;28;20210;-84
2020/12/07 07:06:23;;;;;;;31.25;19.20;;;;;;;4.41;82.88;97202.75;4971111;28;20210;-86
2020/12/07 07:08:59;;;;;;;33.17;19.60;;;;;;;4.46;83.18;97205.94;4980434;28;20215;-85
2020/12/07 07:11:40;;;;;;;32.58;19.60;;;;;;;4.41;83.25;97204.53;4993882;28;20235;-85
2020/12/07 07:14:06;;;;;;;31.15;19.83;;;;;;;4.37;83.34;97206.59;4993187;28;20219;-84
2020/12/07 07:16:33;;;;;;;32.20;19.80;;;;;;;4.48;82.86;97213.81;4996631;28;20256;-85
2020/12/07 07:19:00;;;;;;;28.08;19.10;;;;;;;4.47;82.80;97220.94;4968523;28;20238;-85
2020/12/07 07:21:49;;;;;;;33.35;20.67;;;;;;;4.52;83.03;97226.78;4951301;28;20246;-84
2020/12/07 07:24:18;;;;;;;29.00;17.92;;;;;;;4.54;82.99;97224.84;4999579;28;20214;-85
2020/12/07 07:26:52;;;;;;;34.03;17.55;;;;;;;4.45;82.55;97225.53;4999206;28;20320;-85
2020/12/07 07:29:24;;;;;;;30.52;18.75;;;;;;;4.48;82.71;97222.63;5001098;28;20186;-86
2020/12/07 07:32:00;;;;;;;26.23;16.88;;;;;;;4.43;82.59;97224.75;5213511;23;20342;-84
2020/12/07 07:34:30;;;;;;;30.85;19.50;;;;;;;4.46;83.18;97229.03;4885725;29;20226;-85
2020/12/07 07:36:57;;;;;;;27.65;17.92;;;;;;;4.45;82.67;97227.31;4986010;28;20207;-86
2020/12/07 07:39:25;;;;;;;29.35;18.27;;;;;;;4.44;83.31;97236.28;4951814;28;20219;-85
2020/12/07 07:41:52;;;;;;;26.88;17.45;;;;;;;4.48;82.57;97235.94;4972682;28;20207;-85
2020/12/07 07:44:21;;;;;;;29.63;18.38;;;;;;;4.46;82.40;97234.34;4985352;28;20188;-85
2020/12/07 07:46:52;;;;;;;25.58;16.65;;;;;;;4.54;82.52;97245.28;4999431;28;20197;-85
2020/12/07 07:52:46;;;;;;;26.35;17.88;;;;;;;4.66;82.04;97247.06;4977825;28;20302;-87
2020/12/07 08:00:48;;;;;;;22.92;16.40;;;;;;;4.68;81.79;97251.31;4971217;28;20294;-86
2020/12/07 08:06:29;;;;;;;26.42;16.60;;;;;;;4.88;81.95;97257.88;4966261;28;20254;-86
2020/12/07 08:17:20;;;;;;;27.35;16.63;;;;;;;4.92;81.09;97260.22;4989860;28;20198;-85
2020/12/07 08:19:51;;;;;;;25.77;16.67;;;;;;;4.94;81.73;97263.59;4995524;28;20195;-86
2020/12/07 08:22:20;;;;;;;24.60;16.48;;;;;;;5.09;81.01;97265.16;4981969;28;20235;-85
2020/12/07 08:25:01;;;;;;;23.80;16.05;;;;;;;5.05;80.92;97271.66;4943174;28;20250;-86
2020/12/07 08:27:32;;;;;;;24.98;15.68;;;;;;;5.11;80.82;97276.56;4971626;28;20227;-86
2020/12/07 08:30:08;;;;;;;21.58;15.20;;;;;;;5.10;80.57;97279.31;4963137;28;20651;-85
2020/12/07 08:32:38;;;;;;;22.58;15.30;;;;;;;5.08;80.21;97281.25;4976320;28;20225;-86
2020/12/07 08:35:12;;;;;;;21.23;14.45;;;;;;;5.21;79.42;97290.88;4976149;28;20435;-85
2020/12/07 08:37:44;;;;;;;23.90;14.13;;;;;;;5.12;79.36;97299.56;4993761;28;20578;-86
2020/12/07 08:40:11;;;;;;;19.88;13.32;;;;;;;4.84;79.78;97297.19;4990599;28;20261;-85
2020/12/07 08:42:38;;;;;;;27.00;16.10;;;;;;;4.85;80.67;97296.22;4969408;28;20774;-85
2020/12/07 08:45:05;;;;;;;23.70;15.80;;;;;;;4.96;80.75;97300.78;4956035;28;20226;-86
2020/12/07 08:47:31;;;;;;;25.58;15.10;;;;;;;4.94;80.33;97298.22;4980981;28;20238;-86
2020/12/07 08:50:00;;;;;;;23.35;14.90;;;;;;;4.93;80.32;97298.34;4976842;28;20200;-86
2020/12/07 08:52:29;;;;;;;23.02;15.15;;;;;;;5.07;80.91;97301.69;4943871;28;20245;-85
2020/12/07 08:54:56;;;;;;;23.83;16.10;;;;;;;5.08;80.33;97303.41;4995029;28;20234;-85
2020/12/07 08:57:26;;;;;;;24.60;15.32;;;;;;;5.21;80.34;97306.03;5003004;28;20237;-85
2020/12/07 08:59:52;;;;;;;26.77;16.65;;;;;;;5.25;80.00;97303.03;4981893;28;20282;-85
2020/12/07 09:02:18;;;;;;;24.75;15.00;;;;;;;5.23;79.68;97301.44;5008236;28;20242;-85
2020/12/07 09:04:51;;;;;;;23.48;16.10;;;;;;;5.35;79.99;97311.19;4985153;28;20231;-84
2020/12/07 09:07:24;;;;;;;21.40;14.75;;;;;;;5.25;78.78;97311.03;4959488;28;20714;-87
2020/12/07 09:09:57;;;;;;;22.15;15.38;;;;;;;5.03;79.14;97313.56;4992455;28;20215;-85
2020/12/07 09:12:26;;;;;;;23.98;14.95;;;;;;;5.11;79.24;97315.63;4961338;28;20227;-85
2020/12/07 09:14:53;;;;;;;22.48;15.10;;;;;;;5.17;79.50;97321.38;5014969;28;20211;-85
2020/12/07 09:17:22;;;;;;;26.90;16.75;;;;;;;5.28;78.42;97321.47;4991276;28;21917;-85
2020/12/07 09:19:52;;;;;;;25.25;17.27;;;;;;;5.25;78.23;97323.50;5014132;28;20191;-85
2020/12/07 09:22:18;;;;;;;21.60;14.68;;;;;;;5.38;77.65;97324.31;5008363;28;20214;-86
2020/12/07 09:24:44;;;;;;;24.35;15.48;;;;;;;5.26;77.88;97323.38;4979810;28;20219;-85
2020/12/07 09:27:12;;;;;;;24.13;16.23;;;;;;;5.17;78.98;97333.84;4970719;28;20207;-86
2020/12/07 09:29:43;;;;;;;28.60;19.35;;;;;;;5.10;78.80;97333.47;4988020;28;20234;-85
2020/12/07 09:32:12;;;;;;;28.15;18.35;;;;;;;5.09;79.02;97331.75;4996302;28;20202;-85
2020/12/07 09:34:43;;;;;;;23.17;15.60;;;;;;;4.98;79.50;97334.34;4988587;28;20243;-84
2020/12/07 09:37:10;;;;;;;28.52;17.33;;;;;;;5.03;79.30;97336.66;4977069;28;20282;-85
2020/12/07 09:39:38;;;;;;;28.05;18.35;;;;;;;5.05;79.57;97334.72;5006763;28;20217;-84
2020/12/07 09:42:08;;;;;;;25.45;15.63;;;;;;;5.10;79.46;97341.44;4964750;28;20218;-85
2020/12/07 09:44:48;;;;;;;25.65;17.77;;;;;;;5.18;79.36;97341.72;5009460;28;20230;-86
2020/12/07 09:47:15;;;;;;;27.13;17.75;;;;;;;5.20;78.69;97344.28;5010131;28;20192;-85
2020/12/07 09:49:41;;;;;;;30.35;19.33;;;;;;;5.34;78.48;97345.00;5011279;28;20191;-84
2020/12/07 09:52:08;;;;;;;27.38;18.25;;;;;;;5.45;78.24;97339.72;5007215;28;20229;-85
2020/12/07 09:54:38;;;;;;;26.15;18.00;;;;;;;5.64;78.07;97333.91;4970568;28;20234;-85
2020/12/07 09:57:08;;;;;;;27.60;17.75;;;;;;;5.58;76.57;97334.34;4923341;28;20234;-84
2020/12/07 09:59:48;;;;;;;27.17;17.13;;;;;;;5.79;76.73;97333.59;4963437;28;20233;-84
2020/12/07 10:02:17;;;;;;;29.83;16.50;;;;;;;5.84;75.81;97331.44;4961735;28;20238;-84
2020/12/07 10:04:45;;;;;;;24.38;17.25;;;;;;;5.90;75.37;97328.31;4978165;28;20202;-85
2020/12/07 10:07:12;;;;;;;24.10;17.05;;;;;;;6.03;75.33;97326.44;5002105;28;20215;-85
2020/12/07 10:10:08;;;;;;;21.58;16.02;;;;;;;6.07;74.78;97327.91;5002074;28;20608;-85
2020/12/07 10:12:38;;;;;;;26.23;17.85;;;;;;;6.19;74.60;97327.81;4990978;28;20225;-86
2020/12/07 10:15:06;;;;;;;20.80;15.50;;;;;;;5.92;74.60;97322.88;4982955;28;20243;-86
2020/12/07 10:17:34;;;;;;;23.27;17.05;;;;;;;6.22;73.99;97316.06;4957351;28;20235;-82
2020/12/07 10:20:01;;;;;;;22.45;15.57;;;;;;;6.22;73.92;97310.72;4983338;28;20199;-86
2020/12/07 10:22:31;;;;;;;20.67;14.15;;;;;;;6.23;73.98;97315.94;4945950;28;20621;-85
2020/12/07 10:25:02;;;;;;;21.02;13.80;;;;;;;6.04;74.27;97317.47;4972307;28;20648;-87
2020/12/07 10:27:29;;;;;;;20.00;12.55;;;;;;;5.98;73.36;97312.63;4993888;28;20619;-84
2020/12/07 10:30:09;;;;;;;21.40;12.55;;;;;;;6.04;73.70;97314.78;5112122;23;20214;31
2020/12/07 10:32:48;;;;;;;18.17;12.25;;;;;;;5.93;73.81;97320.94;4969243;28;20786;-84
2020/12/07 10:35:15;;;;;;;18.60;13.00;;;;;;;5.86;74.20;97316.22;4946548;28;20213;-87
2020/12/07 10:38:04;;;;;;;22.00;15.27;;;;;;;5.97;74.65;97333.09;4933727;28;20617;-86
2020/12/07 10:40:38;;;;;;;18.40;13.35;;;;;;;6.10;74.70;97330.31;4946424;29;20247;-86
2020/12/07 10:43:30;;;;;;;20.20;14.20;;;;;;;6.07;74.10;97335.91;4930268;28;20224;-87
2020/12/07 10:47:23;;;;;;;16.17;12.02;;;;;;;6.26;74.07;97338.88;4899402;29;20249;-85
2020/12/07 10:51:30;;;;;;;18.98;13.90;;;;;;;6.45;73.23;97333.81;4873137;29;20303;-87
2020/12/07 10:53:58;;;;;;;16.10;12.45;;;;;;;6.25;72.69;97337.19;4889759;29;20229;-88
2020/12/07 10:56:32;;;;;;;17.25;11.93;;;;;;;6.20;72.96;97334.88;4919160;29;20233;-88
2020/12/07 10:59:07;;;;;;;14.68;11.52;;;;;;;5.80;73.38;97345.13;4907837;29;20200;-85
2020/12/07 11:01:33;;;;;;;18.40;12.55;;;;;;;5.92;73.76;97342.41;4911556;29;20233;-86
2020/12/07 11:04:20;;;;;;;20.08;11.90;;;;;;;5.92;73.63;97350.41;4914256;29;20217;-86
2020/12/07 11:06:53;;;;;;;21.63;14.02;;;;;;;6.06;74.00;97347.56;4902663;29;20226;-84
2020/12/07 11:09:24;;;;;;;18.65;12.82;;;;;;;5.83;73.87;97344.94;4916817;29;20656;-85
2020/12/07 11:12:17;;;;;;;21.48;12.98;;;;;;;5.93;73.86;97342.28;4913798;29;20238;-86
2020/12/07 11:14:49;;;;;;;17.00;11.50;;;;;;;5.82;74.06;97346.72;4890725;29;20778;-85
2020/12/07 11:18:03;;;;;;;18.42;13.07;;;;;;;5.56;75.01;97350.44;4894335;28;20238;-85
2020/12/07 11:20:48;;;;;;;21.80;14.32;;;;;;;5.63;74.98;97354.34;4920491;28;20274;-86
2020/12/07 11:23:48;;;;;;;24.35;16.95;;;;;;;5.64;75.08;97350.72;4955969;28;20207;-86
2020/12/07 11:26:19;;;;;;;21.38;14.20;;;;;;;5.64;75.74;97350.72;4978028;28;20195;-85
2020/12/07 11:28:52;;;;;;;26.73;16.55;;;;;;;5.64;74.57;97349.88;4948761;29;20227;-88
2020/12/07 11:31:20;;;;;;;22.38;14.48;;;;;;;5.77;74.80;97343.50;4960614;28;20224;-88
2020/12/07 11:33:47;;;;;;;23.08;13.77;;;;;;;5.73;74.48;97339.41;4976055;28;20327;-87
2020/12/07 11:36:16;;;;;;;18.08;12.30;;;;;;;5.63;73.85;97332.16;4963284;28;20220;-87
2020/12/07 11:39:09;;;;;;;18.35;12.75;;;;;;;5.57;74.43;97343.31;4969088;28;20255;-85
2020/12/07 11:44:17;;;;;;;19.25;12.75;;;;;;;5.52;74.77;97348.13;4954178;28;20664;-85
2020/12/07 11:47:03;;;;;;;23.15;14.02;;;;;;;5.51;73.96;97339.25;4981051;28;20191;-85
2020/12/07 11:52:24;;;;;;;19.73;12.98;;;;;;;5.51;74.66;97339.25;4963815;28;20309;-86
2020/12/07 11:54:55;;;;;;;19.08;12.18;;;;;;;5.44;73.60;97337.19;4952840;28;20228;-85
2020/12/07 11:57:25;;;;;;;19.23;13.38;;;;;;;5.31;74.92;97334.56;4901774;28;20229;-87
2020/12/07 11:59:52;;;;;;;20.88;13.70;;;;;;;5.48;74.85;97338.63;4956867;28;20303;-84
2020/12/07 12:02:18;;;;;;;20.77;13.48;;;;;;;5.58;74.06;97339.69;4967865;28;20318;-86
2020/12/07 12:04:48;;;;;;;20.00;12.25;;;;;;;5.33;74.14;97337.94;4975326;28;20279;-85
2020/12/07 12:07:14;;;;;;;22.33;13.85;;;;;;;5.33;74.58;97340.59;4975201;28;20580;-85
2020/12/07 12:09:40;;;;;;;44.95;30.17;;;;;;;5.47;74.58;97340.47;4958644;28;20605;-84
2020/12/07 12:12:21;;;;;;;19.35;13.07;;;;;;;5.44;74.20;97343.34;4963332;28;20636;-86
2020/12/07 12:14:50;;;;;;;21.90;13.50;;;;;;;5.41;74.53;97343.59;4971263;28;20600;-86
2020/12/07 12:17:36;;;;;;;18.63;12.40;;;;;;;5.58;74.00;97350.34;5659073;23;20291;-92
2020/12/07 12:23:09;;;;;;;19.85;12.57;;;;;;;5.57;74.27;97348.66;5340084;23;20313;-88
2020/12/07 12:41:31;;;;;;;21.25;13.25;;;;;;;5.72;74.59;97374.16;4894703;29;20253;-85
2020/12/07 12:44:45;;;;;;;26.38;15.00;;;;;;;5.70;74.85;97373.44;4956894;28;20191;-85
2020/12/07 12:47:13;;;;;;;19.85;12.60;;;;;;;5.84;73.92;97367.97;4990039;28;20242;-86
2020/12/07 12:49:42;;;;;;;33.90;22.23;;;;;;;5.80;73.29;97377.13;4971056;28;20201;-84
2020/12/07 12:52:15;;;;;;;23.52;14.90;;;;;;;5.81;74.32;97374.38;4981116;28;20324;-86
2020/12/07 12:54:42;;;;;;;23.25;14.43;;;;;;;5.66;74.66;97382.59;4958260;28;20234;-85
2020/12/07 12:57:11;;;;;;;23.75;14.45;;;;;;;5.60;74.91;97378.59;4982421;28;20224;-86
2020/12/07 12:59:37;;;;;;;18.88;13.35;;;;;;;5.91;73.82;97383.38;5009401;28;20622;-87
2020/12/07 13:02:04;;;;;;;24.38;14.02;;;;;;;5.79;73.42;97376.28;4975418;28;20733;-86
2020/12/07 13:04:31;;;;;;;23.00;14.40;;;;;;;5.76;74.00;97380.97;4973323;28;20262;-89
2020/12/07 13:06:57;;;;;;;20.15;12.50;;;;;;;5.90;73.75;97373.66;4959238;28;20246;-87
2020/12/07 13:09:24;;;;;;;21.17;14.23;;;;;;;5.81;73.40;97376.16;4961465;28;20914;-85
2020/12/07 13:11:53;;;;;;;21.08;13.05;;;;;;;5.88;73.15;97380.94;4998510;28;20310;-83